Time;durP1;ratioP1;P1;durP2;ratioP2;P2;SDS_P1;SDS_P2;PMS_P1;PMS_P2;Temp;Humidity;BMP_temperature;BMP_pressure;BME280_temperature;BME280_humidity;BME280_pressure;Samples;Min_cycle;Max_cycle;Signal;HPM_P1;HPM_P2
2022/05/02 00:00:02;;;;;;;;;;;5.30;99.90;;;;;;4985323;28;19910;-60
2022/05/02 00:02:28;;;;;;;;;;;5.30;99.90;;;;;;4989660;28;20292;-59
2022/05/02 00:04:53;;;;;;;;;;;5.40;99.90;;;;;;4990860;28;19909;-59
2022/05/02 00:07:19;;;;;;;;;;;5.40;99.90;;;;;;4990697;28;19914;-59
2022/05/02 00:09:44;;;;;;;;;;;5.30;99.90;;;;;;4991096;28;20028;-60
2022/05/02 00:12:10;;;;;;;;;;;5.30;99.90;;;;;;4993312;28;20362;-59
2022/05/02 00:14:35;;;;;;;;;;;5.30;99.90;;;;;;4995583;28;19910;-59
2022/05/02 00:17:01;;;;;;;;;;;5.40;99.90;;;;;;4988404;28;19910;-59
2022/05/02 00:19:26;;;;;;;;;;;5.40;99.90;;;;;;4984749;28;20004;-59
2022/05/02 00:21:52;;;;;;;;;;;5.30;99.90;;;;;;4985303;28;19921;-60
2022/05/02 00:24:17;;;;;;;;;;;5.20;99.90;;;;;;4991584;28;20004;-59
2022/05/02 00:26:43;;;;;;;;;;;5.20;99.90;;;;;;4991907;28;20171;-59
2022/05/02 00:29:08;;;;;;;;;;;5.30;99.90;;;;;;4987276;28;19972;-60
2022/05/02 00:31:34;;;;;;;;;;;5.40;99.90;;;;;;4987430;28;19922;-59
2022/05/02 00:33:59;;;;;;;;;;;5.60;99.90;;;;;;4990251;28;19942;-60
2022/05/02 00:36:25;;;;;;;;;;;5.70;99.90;;;;;;4988767;28;19956;-60
2022/05/02 00:38:51;;;;;;;;;;;5.80;99.90;;;;;;4989623;28;20582;-59
2022/05/02 00:41:16;;;;;;;;;;;5.80;99.90;;;;;;4986194;28;19909;-60
2022/05/02 00:43:43;;;;;;;;;;;5.90;99.90;;;;;;4991397;28;20415;-59
2022/05/02 00:46:18;;;;;;;;;;;5.90;99.90;;;;;;4991194;28;19945;-59
2022/05/02 00:48:44;;;;;;;;;;;6.00;99.90;;;;;;4987833;28;19968;-59
2022/05/02 00:51:09;;;;;;;;;;;6.10;99.90;;;;;;4993432;28;19909;-59
2022/05/02 00:53:35;;;;;;;;;;;6.10;99.90;;;;;;4993812;28;19914;-59
2022/05/02 00:56:01;;;;;;;;;;;6.10;99.90;;;;;;4992044;28;19910;-59
2022/05/02 00:58:27;;;;;;;;;;;6.10;99.90;;;;;;4985620;28;20004;-59
2022/05/02 01:00:52;;;;;;;;;;;6.00;99.90;;;;;;4987448;28;20372;-59
2022/05/02 01:03:18;;;;;;;;;;;6.00;99.90;;;;;;4991680;28;19914;-59
2022/05/02 01:08:31;;;;;;;;;;;6.10;99.90;;;;;;4988060;28;19920;-59
2022/05/02 01:10:57;;;;;;;;;;;6.10;99.90;;;;;;4991518;28;19909;-58
2022/05/02 01:13:38;;;;;;;;;;;6.10;99.90;;;;;;4989841;28;20021;-59
2022/05/02 01:16:11;;;;;;;;;;;6.20;99.90;;;;;;4989603;28;19913;-59
2022/05/02 01:18:37;;;;;;;;;;;6.20;99.90;;;;;;4991997;28;19964;-59
2022/05/02 01:21:19;;;;;;;;;;;6.20;99.90;;;;;;4988606;28;19910;-59
2022/05/02 01:23:46;;;;;;;;;;;6.20;99.90;;;;;;4986673;28;19913;-59
2022/05/02 01:26:12;;;;;;;;;;;6.20;99.90;;;;;;4988431;28;19910;-59
2022/05/02 01:28:41;;;;;;;;;;;6.20;99.90;;;;;;4985973;28;19909;-59
2022/05/02 01:31:06;;;;;;;;;;;6.30;99.90;;;;;;4985372;28;20352;-59
2022/05/02 01:33:33;;;;;;;;;;;6.30;99.90;;;;;;4991640;28;20001;-59
2022/05/02 01:35:59;;;;;;;;;;;6.30;99.90;;;;;;5000623;28;19992;-59
2022/05/02 01:38:24;;;;;;;;;;;6.50;99.90;;;;;;4989497;28;19914;-60
2022/05/02 01:40:50;;;;;;;;;;;6.60;99.90;;;;;;4992783;28;19909;-58
2022/05/02 01:43:15;;;;;;;;;;;6.70;99.90;;;;;;4990292;28;19918;-59
2022/05/02 01:45:41;;;;;;;;;;;6.80;99.90;;;;;;4987777;28;19909;-57
2022/05/02 01:48:06;;;;;;;;;;;6.90;99.90;;;;;;4985234;28;19995;-60
2022/05/02 01:50:32;;;;;;;;;;;6.90;99.90;;;;;;4988301;28;20342;-59
2022/05/02 01:52:57;;;;;;;;;;;6.60;99.90;;;;;;4986806;28;19917;-59
2022/05/02 01:55:23;;;;;;;;;;;6.40;99.90;;;;;;4991297;28;20369;-59
2022/05/02 01:57:48;;;;;;;;;;;6.30;99.90;;;;;;4987198;28;19910;-58
2022/05/02 02:00:14;;;;;;;;;;;6.10;99.90;;;;;;4984676;28;20357;-59
2022/05/02 02:02:40;;;;;;;;;;;6.10;99.90;;;;;;4987221;28;20447;-59
2022/05/02 02:07:50;;;;;;;;;;;6.10;99.90;;;;;;4984734;28;19977;-59
2022/05/02 02:10:15;;;;;;;;;;;6.00;99.90;;;;;;4985906;28;19909;-59
2022/05/02 02:12:40;;;;;;;;;;;6.10;99.90;;;;;;4997002;28;19910;-59
2022/05/02 02:15:06;;;;;;;;;;;6.00;99.90;;;;;;4990243;28;19906;-59
2022/05/02 02:17:32;;;;;;;;;;;6.00;99.90;;;;;;4986319;28;19910;-59
2022/05/02 02:19:58;;;;;;;;;;;5.90;99.90;;;;;;4984196;28;20293;-60
2022/05/02 02:22:24;;;;;;;;;;;6.00;99.90;;;;;;4987334;28;19917;-59
2022/05/02 02:24:49;;;;;;;;;;;6.00;99.90;;;;;;4988270;28;20390;-59
2022/05/02 02:27:15;;;;;;;;;;;6.10;99.90;;;;;;4987583;28;19945;-59
2022/05/02 02:29:40;;;;;;;;;;;6.10;99.90;;;;;;4985221;28;20265;-59
2022/05/02 02:32:06;;;;;;;;;;;6.10;99.90;;;;;;4986130;28;20045;-59
2022/05/02 02:34:32;;;;;;;;;;;6.10;99.90;;;;;;4985775;28;20430;-59
2022/05/02 02:36:57;;;;;;;;;;;6.20;99.90;;;;;;4983830;28;19916;-59
2022/05/02 02:39:23;;;;;;;;;;;6.10;99.90;;;;;;4986946;28;20017;-59
2022/05/02 02:41:48;;;;;;;;;;;6.10;99.90;;;;;;4986014;28;20297;-60
2022/05/02 02:44:14;;;;;;;;;;;6.00;99.90;;;;;;4986731;28;19918;-60
2022/05/02 02:46:39;;;;;;;;;;;6.00;99.90;;;;;;4986399;28;19920;-59
2022/05/02 02:49:05;;;;;;;;;;;5.80;99.90;;;;;;4986272;28;19916;-60
2022/05/02 02:51:30;;;;;;;;;;;5.80;99.90;;;;;;4995850;28;20386;-58
2022/05/02 02:53:56;;;;;;;;;;;5.60;99.90;;;;;;4988080;28;19906;-59
2022/05/02 02:56:22;;;;;;;;;;;5.50;99.90;;;;;;4988862;28;19916;-58
2022/05/02 02:58:47;;;;;;;;;;;5.30;99.90;;;;;;4984389;28;19909;-59
2022/05/02 03:01:13;;;;;;;;;;;5.30;99.90;;;;;;4986282;28;19918;-59
2022/05/02 03:03:38;;;;;;;;;;;5.30;99.90;;;;;;4985715;28;20318;-60
2022/05/02 03:06:05;;;;;;;;;;;5.30;99.90;;;;;;4985611;28;19910;-59
2022/05/02 03:08:34;;;;;;;;;;;5.30;99.90;;;;;;4982429;28;19914;-60
2022/05/02 03:11:00;;;;;;;;;;;5.30;99.90;;;;;;4985583;28;19910;-59
2022/05/02 03:13:26;;;;;;;;;;;5.20;99.90;;;;;;4985750;28;19910;-59
2022/05/02 03:15:51;;;;;;;;;;;5.20;99.90;;;;;;4985926;28;19910;-59
2022/05/02 03:18:17;;;;;;;;;;;5.20;99.90;;;;;;4984229;28;19910;-59
2022/05/02 03:20:42;;;;;;;;;;;5.20;99.90;;;;;;4986485;28;19910;-59
2022/05/02 03:23:08;;;;;;;;;;;5.20;99.90;;;;;;4985777;28;19917;-60
2022/05/02 03:25:33;;;;;;;;;;;5.20;99.90;;;;;;4985805;28;19910;-59
2022/05/02 03:27:59;;;;;;;;;;;5.10;99.90;;;;;;4985814;28;19920;-59
2022/05/02 03:30:24;;;;;;;;;;;5.10;99.90;;;;;;4984760;28;19917;-59
2022/05/02 03:32:50;;;;;;;;;;;5.10;99.90;;;;;;4985527;28;20254;-59
2022/05/02 03:35:15;;;;;;;;;;;5.00;99.90;;;;;;4988707;28;20397;-59
2022/05/02 03:37:41;;;;;;;;;;;5.10;99.90;;;;;;4994158;28;19913;-60
2022/05/02 03:40:07;;;;;;;;;;;5.00;99.90;;;;;;4985560;28;19996;-59
2022/05/02 03:42:33;;;;;;;;;;;4.90;99.90;;;;;;4985409;28;19921;-59
2022/05/02 03:44:59;;;;;;;;;;;4.80;99.90;;;;;;4986977;28;19910;-58
2022/05/02 03:47:24;;;;;;;;;;;4.70;99.90;;;;;;4986377;28;19913;-60
2022/05/02 03:49:50;;;;;;;;;;;4.60;99.90;;;;;;4984994;28;19909;-59
2022/05/02 03:52:15;;;;;;;;;;;4.60;99.90;;;;;;4984496;28;20297;-59
2022/05/02 03:54:41;;;;;;;;;;;4.80;99.90;;;;;;4985715;28;19948;-59
2022/05/02 03:57:06;;;;;;;;;;;4.80;99.90;;;;;;4983249;28;19914;-60
2022/05/02 03:59:32;;;;;;;;;;;4.60;99.90;;;;;;4983365;28;20420;-59
2022/05/02 04:01:57;;;;;;;;;;;4.60;99.90;;;;;;4982157;28;19976;-59
2022/05/02 04:04:23;;;;;;;;;;;4.70;99.90;;;;;;4985074;28;20267;-59
2022/05/02 04:06:48;;;;;;;;;;;4.70;99.90;;;;;;4980669;28;20342;-60
2022/05/02 04:09:14;;;;;;;;;;;4.80;99.90;;;;;;4983008;28;19918;-59
2022/05/02 04:11:40;;;;;;;;;;;4.90;99.90;;;;;;4982514;28;19909;-59
2022/05/02 04:14:05;;;;;;;;;;;5.00;99.90;;;;;;4985166;28;19909;-59
2022/05/02 04:16:31;;;;;;;;;;;5.30;99.90;;;;;;4987044;28;19906;-59
2022/05/02 04:18:56;;;;;;;;;;;5.30;99.90;;;;;;4979936;28;19913;-59
2022/05/02 04:21:22;;;;;;;;;;;5.40;99.90;;;;;;4980415;28;19968;-59
2022/05/02 04:23:47;;;;;;;;;;;5.50;99.90;;;;;;4982882;28;19914;-59
2022/05/02 04:26:13;;;;;;;;;;;5.70;99.90;;;;;;4985695;28;19961;-59
2022/05/02 04:28:38;;;;;;;;;;;5.80;99.90;;;;;;4981898;28;20169;-59
2022/05/02 04:31:04;;;;;;;;;;;5.90;99.90;;;;;;4980885;28;19971;-59
2022/05/02 04:33:29;;;;;;;;;;;5.90;99.90;;;;;;4984293;28;19920;-60
2022/05/02 04:35:55;;;;;;;;;;;5.90;99.90;;;;;;4982147;28;19925;-59
2022/05/02 04:38:20;;;;;;;;;;;6.10;99.90;;;;;;4983210;28;19910;-59
2022/05/02 04:40:46;;;;;;;;;;;6.20;99.90;;;;;;4984147;28;19917;-59
2022/05/02 04:43:11;;;;;;;;;;;6.20;99.90;;;;;;4981442;28;19922;-59
2022/05/02 04:45:37;;;;;;;;;;;6.20;99.90;;;;;;4984542;28;19909;-59
2022/05/02 04:48:02;;;;;;;;;;;6.40;99.90;;;;;;4981718;28;19965;-59
2022/05/02 04:50:28;;;;;;;;;;;6.40;99.90;;;;;;4988026;28;20021;-59
2022/05/02 04:52:53;;;;;;;;;;;6.50;99.90;;;;;;4986810;28;20709;-59
2022/05/02 04:55:19;;;;;;;;;;;6.60;99.90;;;;;;4989625;28;19910;-59
2022/05/02 04:57:44;;;;;;;;;;;6.70;99.90;;;;;;4989380;28;20357;-59
2022/05/02 05:00:10;;;;;;;;;;;6.90;99.90;;;;;;4985723;28;20359;-59
2022/05/02 05:02:36;;;;;;;;;;;7.00;99.90;;;;;;4986206;28;19914;-59
2022/05/02 05:05:01;;;;;;;;;;;7.10;99.90;;;;;;4984462;28;19937;-60
2022/05/02 05:07:27;;;;;;;;;;;7.30;99.90;;;;;;4987470;28;19914;-59
2022/05/02 05:09:53;;;;;;;;;;;7.40;99.90;;;;;;4983739;28;19910;-59
2022/05/02 05:12:25;;;;;;;;;;;7.50;99.90;;;;;;4987550;28;19913;-60
2022/05/02 05:18:17;;;;;;;;;;;7.60;99.90;;;;;;5002291;28;20472;-59
2022/05/02 05:21:02;;;;;;;;;;;7.50;99.90;;;;;;4986531;28;19923;-59
2022/05/02 05:23:46;;;;;;;;;;;7.60;99.90;;;;;;4984917;28;19913;-60
2022/05/02 05:26:29;;;;;;;;;;;7.70;99.90;;;;;;4980829;28;19957;-59
2022/05/02 05:29:04;;;;;;;;;;;7.70;99.90;;;;;;4993294;28;19929;-59
2022/05/02 05:31:36;;;;;;;;;;;7.60;99.90;;;;;;4985962;28;20012;-59
2022/05/02 05:34:20;;;;;;;;;;;7.90;99.90;;;;;;4986167;28;19909;-59
2022/05/02 05:36:45;;;;;;;;;;;8.10;99.90;;;;;;4989626;28;19953;-59
2022/05/02 05:39:16;;;;;;;;;;;8.10;99.90;;;;;;4987102;28;19976;-59
2022/05/02 05:41:54;;;;;;;;;;;8.30;99.90;;;;;;4983247;28;19916;-59
2022/05/02 05:44:35;;;;;;;;;;;8.30;99.90;;;;;;4986988;28;19910;-59
2022/05/02 05:47:00;;;;;;;;;;;8.40;99.90;;;;;;4983948;28;20726;-59
2022/05/02 05:49:28;;;;;;;;;;;8.20;99.90;;;;;;4984426;28;20064;-59
2022/05/02 05:52:05;;;;;;;;;;;8.10;99.90;;;;;;4987094;28;19914;-59
2022/05/02 05:54:59;;;;;;;;;;;8.00;99.90;;;;;;4986567;28;20004;-59
2022/05/02 05:57:34;;;;;;;;;;;8.10;99.90;;;;;;4985746;28;19918;-59
2022/05/02 06:00:09;;;;;;;;;;;8.20;99.90;;;;;;4982524;28;19913;-59
2022/05/02 06:02:53;;;;;;;;;;;8.30;99.90;;;;;;4982545;28;19917;-59
2022/05/02 06:05:19;;;;;;;;;;;8.30;99.90;;;;;;4984026;28;19917;-60
2022/05/02 06:07:46;;;;;;;;;;;8.30;99.90;;;;;;4982618;28;19932;-59
2022/05/02 06:10:13;;;;;;;;;;;8.60;99.90;;;;;;4980129;28;19967;-59
2022/05/02 06:12:39;;;;;;;;;;;8.90;99.90;;;;;;4985892;28;19914;-59
2022/05/02 06:20:35;;;;;;;;;;;9.30;99.90;;;;;;4984323;28;19921;-59
2022/05/02 06:23:01;;;;;;;;;;;9.30;99.90;;;;;;4981964;28;19913;-59
2022/05/02 06:25:28;;;;;;;;;;;9.00;99.90;;;;;;4980638;28;19921;-59
2022/05/02 06:27:55;;;;;;;;;;;9.00;99.90;;;;;;4982036;28;20027;-60
2022/05/02 06:30:22;;;;;;;;;;;9.10;99.90;;;;;;4980616;28;19913;-59
2022/05/02 06:32:48;;;;;;;;;;;9.10;99.90;;;;;;4984968;28;19925;-60
2022/05/02 06:35:14;;;;;;;;;;;9.20;99.90;;;;;;4984708;28;20396;-59
2022/05/02 06:38:01;;;;;;;;;;;9.40;99.90;;;;;;4984270;28;19996;-60
2022/05/02 06:40:26;;;;;;;;;;;9.90;99.90;;;;;;4986265;28;20347;-59
2022/05/02 06:43:03;;;;;;;;;;;9.90;99.90;;;;;;4986247;28;20719;-59
2022/05/02 06:45:33;;;;;;;;;;;10.10;99.90;;;;;;4982544;28;19910;-60
2022/05/02 06:48:11;;;;;;;;;;;10.00;99.90;;;;;;4976934;28;19922;-59
2022/05/02 06:50:38;;;;;;;;;;;10.50;99.90;;;;;;4979360;28;19910;-59
2022/05/02 06:53:22;;;;;;;;;;;10.10;99.90;;;;;;4981651;28;20004;-59
2022/05/02 06:56:01;;;;;;;;;;;10.20;99.90;;;;;;4982761;28;19916;-60
2022/05/02 06:58:29;;;;;;;;;;;10.10;99.90;;;;;;4985452;28;19905;-59
2022/05/02 07:01:01;;;;;;;;;;;10.30;99.90;;;;;;4986430;28;19924;-59
2022/05/02 07:03:46;;;;;;;;;;;10.60;99.90;;;;;;4981383;28;20074;-60
2022/05/02 07:06:22;;;;;;;;;;;10.40;99.90;;;;;;4984934;28;19914;-59
2022/05/02 07:08:53;;;;;;;;;;;10.20;99.90;;;;;;4986011;28;19913;-59
2022/05/02 07:11:20;;;;;;;;;;;10.80;99.90;;;;;;4984428;28;19937;-59
2022/05/02 07:14:04;;;;;;;;;;;10.70;99.90;;;;;;4985990;28;19927;-59
2022/05/02 07:16:30;;;;;;;;;;;10.70;99.90;;;;;;4984069;28;19937;-59
2022/05/02 07:18:55;;;;;;;;;;;10.60;99.90;;;;;;4987768;28;20319;-60
2022/05/02 07:21:40;;;;;;;;;;;11.10;99.90;;;;;;4989204;28;20452;-60
2022/05/02 07:24:08;;;;;;;;;;;11.30;99.90;;;;;;4991928;28;19914;-59
2022/05/02 07:26:36;;;;;;;;;;;11.60;99.90;;;;;;4987536;28;20559;-59
2022/05/02 07:29:03;;;;;;;;;;;11.60;99.90;;;;;;4988491;28;19913;-59
2022/05/02 07:31:30;;;;;;;;;;;11.80;99.90;;;;;;4984703;28;20267;-59
2022/05/02 07:33:55;;;;;;;;;;;11.50;99.90;;;;;;4987083;28;20339;-59
2022/05/02 07:36:23;;;;;;;;;;;11.60;99.90;;;;;;4989143;28;19916;-60
2022/05/02 07:38:59;;;;;;;;;;;11.80;99.90;;;;;;4991054;28;19917;-59
2022/05/02 07:41:25;;;;;;;;;;;11.80;99.90;;;;;;4989358;28;19997;-60
2022/05/02 07:43:59;;;;;;;;;;;12.20;99.90;;;;;;4988017;28;19941;-59
2022/05/02 07:46:31;;;;;;;;;;;12.10;99.90;;;;;;4991443;28;20102;-59
2022/05/02 07:48:58;;;;;;;;;;;12.30;99.90;;;;;;4989765;28;19910;-59
2022/05/02 07:51:24;;;;;;;;;;;12.40;99.90;;;;;;4987277;28;19920;-59
2022/05/02 07:53:51;;;;;;;;;;;12.60;99.90;;;;;;4990956;28;19941;-59
2022/05/02 07:56:21;;;;;;;;;;;12.60;99.90;;;;;;4984553;28;20016;-59
2022/05/02 07:58:47;;;;;;;;;;;12.60;99.90;;;;;;4988381;28;20282;-59
2022/05/02 08:01:19;;;;;;;;;;;12.70;99.90;;;;;;4984854;28;19918;-59
2022/05/02 08:03:45;;;;;;;;;;;12.80;99.90;;;;;;4980248;28;19932;-59
2022/05/02 08:06:16;;;;;;;;;;;12.50;99.90;;;;;;4984265;28;19913;-59
2022/05/02 08:09:01;;;;;;;;;;;12.80;99.90;;;;;;4984454;28;19924;-59
2022/05/02 08:11:32;;;;;;;;;;;13.30;99.90;;;;;;4986250;28;19913;-59
2022/05/02 08:14:14;;;;;;;;;;;13.80;99.90;;;;;;4985211;28;20453;-59
2022/05/02 08:16:43;;;;;;;;;;;15.10;99.90;;;;;;4991252;28;20280;-59
2022/05/02 08:19:15;;;;;;;;;;;15.20;99.90;;;;;;4987393;28;19924;-59
2022/05/02 08:21:53;;;;;;;;;;;15.30;99.90;;;;;;4983125;28;19910;-59
2022/05/02 08:27:17;;;;;;;;;;;15.70;99.90;;;;;;4986994;28;19920;-60
2022/05/02 08:29:48;;;;;;;;;;;15.80;99.90;;;;;;4982300;28;20301;-60
2022/05/02 08:32:18;;;;;;;;;;;15.60;99.90;;;;;;4986654;28;19976;-59
2022/05/02 08:34:45;;;;;;;;;;;15.90;99.90;;;;;;4988977;28;20269;-59
2022/05/02 08:37:11;;;;;;;;;;;14.70;99.90;;;;;;4986113;28;19914;-59
2022/05/02 08:39:41;;;;;;;;;;;14.50;99.90;;;;;;4979049;28;20008;-59
2022/05/02 08:42:18;;;;;;;;;;;14.40;99.90;;;;;;4987694;28;20003;-59
2022/05/02 08:44:44;;;;;;;;;;;14.40;99.90;;;;;;4983396;28;19918;-60
2022/05/02 08:47:18;;;;;;;;;;;15.70;99.90;;;;;;4985449;28;19964;-59
2022/05/02 08:49:50;;;;;;;;;;;15.80;99.90;;;;;;4986796;28;19917;-60
2022/05/02 08:52:34;;;;;;;;;;;16.20;99.90;;;;;;4988312;28;20388;-59
2022/05/02 08:54:59;;;;;;;;;;;16.80;99.90;;;;;;4987385;28;20298;-59
2022/05/02 08:57:44;;;;;;;;;;;16.90;99.90;;;;;;4987093;28;20009;-59
2022/05/02 09:00:32;;;;;;;;;;;16.90;99.50;;;;;;4989553;28;19985;-59
2022/05/02 09:03:18;;;;;;;;;;;17.50;99.90;;;;;;4986561;28;19922;-59
2022/05/02 09:05:46;;;;;;;;;;;16.90;99.90;;;;;;4984569;28;19914;-60
2022/05/02 09:08:15;;;;;;;;;;;18.30;99.90;;;;;;4986825;28;19932;-60
2022/05/02 09:11:07;;;;;;;;;;;18.10;98.50;;;;;;4985813;28;19964;-60
2022/05/02 09:13:45;;;;;;;;;;;18.00;97.30;;;;;;4984970;28;19913;-59
2022/05/02 09:16:25;;;;;;;;;;;19.30;96.50;;;;;;4985085;28;19920;-60
2022/05/02 09:19:29;;;;;;;;;;;18.70;96.20;;;;;;4987074;28;19909;-59
2022/05/02 09:21:55;;;;;;;;;;;17.90;98.90;;;;;;4998300;28;19917;-60
2022/05/02 09:24:37;;;;;;;;;;;18.10;96.70;;;;;;4998258;28;20356;-60
2022/05/02 09:27:13;;;;;;;;;;;17.40;98.90;;;;;;4988251;28;19918;-60
2022/05/02 09:29:52;;;;;;;;;;;19.10;97.30;;;;;;4978210;28;20052;-60
2022/05/02 09:32:18;;;;;;;;;;;18.90;95.20;;;;;;4982372;28;20402;-60
2022/05/02 09:34:53;;;;;;;;;;;17.30;98.60;;;;;;4988548;28;20171;-60
2022/05/02 09:37:30;;;;;;;;;;;19.20;97.50;;;;;;4985486;28;19914;-60
2022/05/02 09:40:04;;;;;;;;;;;18.50;97.10;;;;;;4988903;28;20313;-60
2022/05/02 09:42:41;;;;;;;;;;;18.90;96.40;;;;;;4985151;28;19988;-61
2022/05/02 09:50:59;;;;;;;;;;;17.50;97.60;;;;;;4986176;28;19975;-60
2022/05/02 09:53:31;;;;;;;;;;;19.10;95.80;;;;;;4981924;28;20380;-59
2022/05/02 09:58:47;;;;;;;;;;;20.00;95.30;;;;;;4983970;28;19920;-59
2022/05/02 10:01:17;;;;;;;;;;;20.40;94.70;;;;;;4989589;28;19925;-59
2022/05/02 10:03:58;;;;;;;;;;;20.00;93.50;;;;;;4991470;28;19913;-60
2022/05/02 10:06:35;;;;;;;;;;;20.00;93.50;;;;;;4992700;28;19968;-60
2022/05/02 10:09:08;;;;;;;;;;;20.60;92.30;;;;;;4990066;28;19952;-60
2022/05/02 10:11:39;;;;;;;;;;;20.80;92.40;;;;;;4985402;28;19917;-59
2022/05/02 10:14:24;;;;;;;;;;;20.80;91.50;;;;;;4990104;28;19913;-60
2022/05/02 10:17:14;;;;;;;;;;;20.40;91.50;;;;;;4990207;28;19909;-60
2022/05/02 10:19:46;;;;;;;;;;;19.50;93.20;;;;;;4991442;28;19916;-60
2022/05/02 10:22:23;;;;;;;;;;;20.10;92.60;;;;;;4991441;28;19906;-59
2022/05/02 10:24:49;;;;;;;;;;;20.70;91.20;;;;;;4990571;28;19914;-60
2022/05/02 10:27:14;;;;;;;;;;;20.30;91.00;;;;;;4989870;28;20273;-60
2022/05/02 10:29:58;;;;;;;;;;;20.30;92.60;;;;;;4988144;28;19917;-60
2022/05/02 10:32:43;;;;;;;;;;;20.00;92.20;;;;;;4990579;28;20401;-60
2022/05/02 10:35:16;;;;;;;;;;;20.00;92.20;;;;;;4987469;28;19909;-60
2022/05/02 10:37:42;;;;;;;;;;;20.50;90.60;;;;;;4986171;28;20032;-59
2022/05/02 10:40:10;;;;;;;;;;;20.40;92.70;;;;;;4982975;28;19968;-60
2022/05/02 10:42:36;;;;;;;;;;;20.90;90.90;;;;;;4978870;28;19948;-60
2022/05/02 10:45:04;;;;;;;;;;;20.70;91.60;;;;;;4981185;28;19917;-60
2022/05/02 10:47:39;;;;;;;;;;;21.00;90.90;;;;;;4979743;28;19924;-60
2022/05/02 10:50:16;;;;;;;;;;;22.20;88.00;;;;;;4982567;28;19914;-60
2022/05/02 10:52:42;;;;;;;;;;;20.70;90.60;;;;;;4981805;28;19956;-60
2022/05/02 10:55:12;;;;;;;;;;;20.70;90.90;;;;;;4982894;28;19972;-60
2022/05/02 10:57:45;;;;;;;;;;;20.20;91.50;;;;;;4980271;28;19996;-60
2022/05/02 11:00:12;;;;;;;;;;;;;;;;;;4983193;28;19914;-60
2022/05/02 11:02:56;;;;;;;;;;;23.00;87.30;;;;;;4985172;28;20895;-61
2022/05/02 11:05:33;;;;;;;;;;;23.50;84.40;;;;;;4981782;28;19914;-60
2022/05/02 11:08:09;;;;;;;;;;;22.70;86.00;;;;;;4984966;28;20024;-60
2022/05/02 11:10:39;;;;;;;;;;;22.40;87.90;;;;;;4983945;28;19914;-60
2022/05/02 11:13:15;;;;;;;;;;;21.60;88.30;;;;;;4983482;28;19917;-60
2022/05/02 11:15:47;;;;;;;;;;;23.40;86.90;;;;;;4983632;28;19910;-60
2022/05/02 11:21:23;;;;;;;;;;;23.40;83.70;;;;;;4980182;28;19968;-60
2022/05/02 11:24:00;;;;;;;;;;;22.30;83.70;;;;;;4979021;28;19932;-60
2022/05/02 11:26:39;;;;;;;;;;;21.80;85.70;;;;;;4977511;28;19960;-59
2022/05/02 11:29:05;;;;;;;;;;;20.70;86.70;;;;;;4981845;28;19924;-60
2022/05/02 11:31:36;;;;;;;;;;;21.00;88.60;;;;;;4981928;28;19925;-60
2022/05/02 11:34:07;;;;;;;;;;;22.10;84.90;;;;;;4985526;28;19920;-60
2022/05/02 11:36:36;;;;;;;;;;;22.60;84.40;;;;;;4982680;28;19917;-60
2022/05/02 11:39:03;;;;;;;;;;;23.20;80.60;;;;;;4977646;28;19972;-60
2022/05/02 11:41:29;;;;;;;;;;;23.90;83.00;;;;;;4984878;28;19910;-60
2022/05/02 11:44:12;;;;;;;;;;;23.20;79.40;;;;;;4988408;28;20229;-60
2022/05/02 11:46:43;;;;;;;;;;;24.40;77.00;;;;;;4980650;28;19936;-60
2022/05/02 11:49:11;;;;;;;;;;;23.50;79.40;;;;;;4984017;28;20420;-60
2022/05/02 11:51:37;;;;;;;;;;;23.80;80.00;;;;;;4986266;28;19972;-60
2022/05/02 11:54:07;;;;;;;;;;;22.50;79.60;;;;;;4988719;28;20329;-60
2022/05/02 11:56:39;;;;;;;;;;;23.00;81.20;;;;;;4985227;28;19928;-60
2022/05/02 11:59:08;;;;;;;;;;;24.20;77.80;;;;;;4983812;28;19914;-60
2022/05/02 12:01:37;;;;;;;;;;;24.00;76.60;;;;;;4984734;28;20467;-60
2022/05/02 12:04:03;;;;;;;;;;;23.40;77.40;;;;;;4987549;28;21516;-60
2022/05/02 12:06:31;;;;;;;;;;;24.60;76.50;;;;;;4988816;28;19949;-60
2022/05/02 12:08:59;;;;;;;;;;;23.90;77.10;;;;;;4989374;28;19914;-60
2022/05/02 12:11:24;;;;;;;;;;;24.20;75.90;;;;;;4988870;28;20372;-60
2022/05/02 12:13:51;;;;;;;;;;;25.70;74.20;;;;;;4988575;28;19916;-60
2022/05/02 12:16:17;;;;;;;;;;;23.70;75.90;;;;;;4988691;28;20065;-60
2022/05/02 12:18:46;;;;;;;;;;;26.10;74.30;;;;;;4992821;28;19914;-60
2022/05/02 12:21:14;;;;;;;;;;;26.30;71.80;;;;;;4994179;28;19913;-60
2022/05/02 12:23:40;;;;;;;;;;;24.60;72.90;;;;;;4991853;28;20350;-60
2022/05/02 12:26:14;;;;;;;;;;;26.40;72.50;;;;;;4988633;28;19920;-61
2022/05/02 12:28:45;;;;;;;;;;;28.70;68.30;;;;;;4986154;28;20385;-60
2022/05/02 12:31:15;;;;;;;;;;;29.00;66.10;;;;;;4989496;28;20072;-61
2022/05/02 12:33:43;;;;;;;;;;;24.50;68.40;;;;;;4987404;28;19917;-60
2022/05/02 12:36:16;;;;;;;;;;;24.40;71.70;;;;;;4990810;28;19924;-60
2022/05/02 12:39:02;;;;;;;;;;;22.60;73.80;;;;;;4984537;28;19909;-60
2022/05/02 12:41:29;;;;;;;;;;;24.90;72.70;;;;;;4982357;28;19913;-60
2022/05/02 12:43:59;;;;;;;;;;;27.30;66.90;;;;;;4984998;28;20425;-60
2022/05/02 12:46:32;;;;;;;;;;;27.40;65.00;;;;;;4985158;28;19925;-60
2022/05/02 12:49:03;;;;;;;;;;;27.60;65.30;;;;;;4986242;28;19940;-60
2022/05/02 12:51:30;;;;;;;;;;;25.10;67.80;;;;;;4987968;28;19967;-60
2022/05/02 12:54:09;;;;;;;;;;;25.50;70.40;;;;;;4988347;28;19913;-60
2022/05/02 12:56:46;;;;;;;;;;;23.70;70.60;;;;;;4986049;28;20278;-60
2022/05/02 13:01:59;;;;;;;;;;;20.70;76.80;;;;;;4989282;28;19968;-60
2022/05/02 13:04:25;;;;;;;;;;;21.00;77.50;;;;;;5017275;28;20281;-60
2022/05/02 13:06:51;;;;;;;;;;;21.30;76.00;;;;;;4990114;28;19918;-60
2022/05/02 13:09:19;;;;;;;;;;;23.10;75.00;;;;;;4987491;28;19953;-60
2022/05/02 13:11:45;;;;;;;;;;;21.90;74.40;;;;;;4985662;28;20012;-60
2022/05/02 13:14:21;;;;;;;;;;;21.90;75.30;;;;;;4986464;28;19909;-60
2022/05/02 13:16:47;;;;;;;;;;;20.80;75.60;;;;;;4982607;28;19996;-60
2022/05/02 13:19:12;;;;;;;;;;;20.70;76.70;;;;;;4984276;28;19918;-60
2022/05/02 13:21:38;;;;;;;;;;;20.70;79.20;;;;;;4986114;28;19910;-60
2022/05/02 13:24:07;;;;;;;;;;;21.40;77.70;;;;;;4986890;28;19924;-60
2022/05/02 13:26:37;;;;;;;;;;;21.70;76.40;;;;;;4987094;28;19910;-60
2022/05/02 13:29:03;;;;;;;;;;;21.10;79.80;;;;;;4985520;28;19928;-60
2022/05/02 13:31:44;;;;;;;;;;;21.70;78.00;;;;;;4982010;28;19921;-60
2022/05/02 13:34:19;;;;;;;;;;;22.30;76.50;;;;;;4984933;28;19988;-60
2022/05/02 13:36:47;;;;;;;;;;;20.80;77.80;;;;;;4984022;28;19997;-60
2022/05/02 13:39:13;;;;;;;;;;;20.20;78.90;;;;;;4986282;28;19920;-60
2022/05/02 13:41:44;;;;;;;;;;;20.70;78.60;;;;;;4993311;28;19909;-60
2022/05/02 13:44:27;;;;;;;;;;;20.30;79.30;;;;;;4989512;28;19961;-60
2022/05/02 13:46:59;;;;;;;;;;;20.00;80.80;;;;;;4985481;28;19921;-60
2022/05/02 13:49:43;;;;;;;;;;;19.90;80.70;;;;;;4984776;28;19960;-60
2022/05/02 13:52:18;;;;;;;;;;;20.10;80.90;;;;;;4987546;28;19920;-60
2022/05/02 13:54:48;;;;;;;;;;;20.60;79.80;;;;;;4987671;28;19957;-60
2022/05/02 13:57:31;;;;;;;;;;;20.90;79.10;;;;;;4986402;28;19921;-60
2022/05/02 14:00:47;;;;;;;;;;;20.90;78.80;;;;;;4985752;28;19914;-60
2022/05/02 14:03:00;;;;;;;;;;;22.60;75.90;;;;;;4979812;28;20057;-60
2022/05/02 14:05:43;;;;;;;;;;;21.80;76.20;;;;;;4986785;28;19917;-60
2022/05/02 14:08:11;;;;;;;;;;;22.00;75.10;;;;;;4985180;28;19972;-60
2022/05/02 14:10:50;;;;;;;;;;;20.80;78.70;;;;;;4984316;28;19910;-60
2022/05/02 14:13:16;;;;;;;;;;;20.60;80.00;;;;;;4986039;28;19914;-60
2022/05/02 14:15:43;;;;;;;;;;;20.10;80.00;;;;;;4987828;28;19917;-59
2022/05/02 14:18:11;;;;;;;;;;;20.40;80.50;;;;;;4986085;28;20032;-60
2022/05/02 14:20:37;;;;;;;;;;;20.70;80.60;;;;;;4982736;28;20817;-60
2022/05/02 14:23:10;;;;;;;;;;;21.80;77.60;;;;;;4983210;28;19925;-60
2022/05/02 14:25:35;;;;;;;;;;;23.20;76.60;;;;;;4984544;28;20383;-60
2022/05/02 14:28:07;;;;;;;;;;;21.90;74.40;;;;;;4986856;28;20011;-60
2022/05/02 14:30:38;;;;;;;;;;;21.00;77.70;;;;;;4983133;28;19921;-60
2022/05/02 14:33:04;;;;;;;;;;;21.50;78.20;;;;;;4987417;28;19925;-59
2022/05/02 14:35:38;;;;;;;;;;;21.30;76.70;;;;;;4985843;28;19914;-60
2022/05/02 14:38:08;;;;;;;;;;;21.40;77.80;;;;;;4985365;28;20020;-60
2022/05/02 14:40:41;;;;;;;;;;;22.60;76.50;;;;;;4983582;28;19956;-60
2022/05/02 14:43:08;;;;;;;;;;;23.70;73.70;;;;;;4985809;28;19920;-61
2022/05/02 14:45:34;;;;;;;;;;;23.90;72.70;;;;;;4985142;28;19934;-59
2022/05/02 14:48:03;;;;;;;;;;;22.60;74.70;;;;;;4985176;28;19937;-60
2022/05/02 14:50:29;;;;;;;;;;;22.30;74.60;;;;;;4982449;28;20218;-60
2022/05/02 14:52:55;;;;;;;;;;;22.60;76.80;;;;;;4984509;28;20008;-60
2022/05/02 14:55:24;;;;;;;;;;;23.20;74.20;;;;;;4984112;28;20246;-60
2022/05/02 14:57:51;;;;;;;;;;;24.90;71.30;;;;;;4983571;28;20125;-60
2022/05/02 15:00:19;;;;;;;;;;;24.00;70.90;;;;;;4982064;28;19952;-60
2022/05/02 15:02:47;;;;;;;;;;;23.50;72.00;;;;;;4983866;28;19937;-60
2022/05/02 15:05:20;;;;;;;;;;;23.40;71.00;;;;;;4987998;28;19913;-60
2022/05/02 15:07:55;;;;;;;;;;;22.40;73.10;;;;;;4986742;28;19917;-60
2022/05/02 15:10:23;;;;;;;;;;;22.50;73.80;;;;;;4985687;28;19939;-60